Aérodrome :
LOGIN :

S'inscrire | Disclaimer

   EN    FR    IT 

 










Légende :    VFR   VFR Marginal   IFR   IFR Intensif   IFR Très Intensif
Visi : 
Plafond : 
>= 8 km
>= 3000ft
5 à 8 km
1000 à 3000 ft
1500m à 5 km
500 à 1000 ft
800 à 1500m
200 à 500 ft
< 800m
< 200 ft
Symboles :   Orages  Brouillard  Fortes neiges  Fortes précipitations  Vent > 20 kt
SIGMETs :   Divers  Orages  Givrage  Turbulence  Onde Orograph.  Cendres Volcan.






- Altitude de l'aérodrome : 151 ft
- Code IATA : PES


ULPB - Petrozavodsk

DERNIER METAR :
  • 050630Z 09002MPS 9000 -RA FEW003 BKN013 13/12 Q1002 R19/19//50 NOSIG RMK QBB090 OBST OBSC QFE747/0997

METARs EXPIRÉS :
  • 050600Z VRB01MPS 9000 -RA NSC 12/12 Q1001 R19/19//50 NOSIG RMK QFE747/0997
  • 050530Z 10002MPS 9999 VV002 12/11 Q1002 R19/19//50 NOSIG RMK QBB070 OBST OBSC QFE747/0997
  • 050500Z 10002MPS 060V130 3600 BR VV002 11/11 Q1002 NOSIG RMK QBB060 OBST OBSC QFE747/0996
  • 050400Z AUTO 10002MPS 070V140 1100 0800SW // ///001/// 11/11 Q1001 RMK QBB050 QFE747/0996

TAF TAF ULPB
Valide du 05 à 06h jusqu'au 05 à 15h UTC


050455Z 0506/0515 14003MPS 3100 BR BKN004 BKN016
TEMPO 0506/0507 1600 BR VV002
BECMG 0507/0509 8000 NSW SCT011 BKN015
TEMPO 0509/0515 17003G08MPS 5000 -SHRA BKN011 BKN016CB



MET'MAP, la Météo Aéronautique d'un coup d'oeil ! - Copyright ORBIFLY Décembre 2007 - Disclaimer

ORBIFLY MET'MAP TEAM :

Programmation & Développement : Alexandra Zaïnal
Sur une idée originale de : Baudouin d'Aumeries
Assistance à la programmation : Marc-Olivier Méhu
Soutien technique & logistique : Manuel Goepfert

Contact : metmap@orbifly.com




SOURCES & CREDITS :

   NOAA